createdAt,value
2019-05-12T00:01:33.146Z,1.90
2019-05-12T00:04:00.610Z,2.03
2019-05-12T00:06:28.530Z,1.93
2019-05-12T00:08:57.818Z,2.27
2019-05-12T00:11:22.977Z,1.83
2019-05-12T00:13:50.435Z,1.90
2019-05-12T00:16:17.873Z,2.00
2019-05-12T00:18:48.203Z,2.20
2019-05-12T00:21:13.709Z,2.27
2019-05-12T00:23:47.667Z,2.17
2019-05-12T00:26:14.187Z,1.90
2019-05-12T00:28:41.633Z,2.20
2019-05-12T00:31:09.071Z,2.00
2019-05-12T00:33:38.451Z,2.10
2019-05-12T00:36:03.994Z,2.08
2019-05-12T00:38:31.453Z,1.80
2019-05-12T00:40:58.948Z,1.97
2019-05-12T00:43:28.198Z,1.90
2019-05-12T00:45:53.886Z,2.00
2019-05-12T00:48:21.344Z,2.33
2019-05-12T00:50:48.815Z,1.98
2019-05-12T00:53:18.888Z,1.87
2019-05-12T00:55:44.578Z,1.90
2019-05-12T00:58:12.034Z,1.97
2019-05-12T01:00:41.589Z,2.40
2019-05-12T01:03:08.683Z,1.70
2019-05-12T01:05:34.503Z,1.90
2019-05-12T01:08:01.930Z,2.17
2019-05-12T01:10:29.385Z,1.80
2019-05-12T01:12:58.138Z,2.23
2019-05-12T01:15:24.332Z,2.60
2019-05-12T01:17:51.786Z,2.00
2019-05-12T01:20:19.234Z,2.23
2019-05-12T01:22:50.392Z,2.33
2019-05-12T01:25:14.973Z,2.17
2019-05-12T01:27:42.485Z,2.13
2019-05-12T01:30:09.951Z,2.00
2019-05-12T01:32:38.259Z,2.50
2019-05-12T01:35:04.906Z,2.10
2019-05-12T01:37:32.368Z,2.20
2019-05-12T01:40:00.205Z,2.60
2019-05-12T01:42:28.653Z,2.13
2019-05-12T01:44:54.751Z,2.10
2019-05-12T01:47:22.217Z,2.10
2019-05-12T01:49:49.677Z,2.30
2019-05-12T01:52:18.119Z,2.15
2019-05-12T01:54:45.619Z,2.20
2019-05-12T01:57:13.055Z,2.33
2019-05-12T01:59:40.489Z,2.30
2019-05-12T02:02:08.607Z,2.50
2019-05-12T02:04:55.085Z,2.40
2019-05-12T02:07:22.531Z,2.57
2019-05-12T02:09:50.002Z,2.53
2019-05-12T02:12:18.278Z,2.85
2019-05-12T02:14:44.954Z,2.53
2019-05-12T02:17:12.386Z,2.10
2019-05-12T02:19:39.842Z,2.30
2019-05-12T02:22:08.427Z,2.23
2019-05-12T02:24:34.798Z,2.45
2019-05-12T02:27:02.257Z,2.20
2019-05-12T02:29:29.684Z,2.60
2019-05-12T02:31:58.924Z,2.50
2019-05-12T02:34:25.595Z,2.47
2019-05-12T02:36:55.265Z,1.90
2019-05-12T02:39:19.544Z,2.23
2019-05-12T02:41:47.032Z,2.70
2019-05-12T02:44:15.178Z,2.60
2019-05-12T02:46:44.463Z,2.60
2019-05-12T02:49:09.393Z,2.37
2019-05-12T02:51:36.852Z,2.63
2019-05-12T02:54:05.436Z,2.33
2019-05-12T02:56:35.192Z,2.30
2019-05-12T02:58:59.265Z,2.80
2019-05-12T03:01:26.701Z,2.63
2019-05-12T03:03:54.955Z,2.53
2019-05-12T03:06:24.937Z,2.70
2019-05-12T03:08:49.838Z,2.87
2019-05-12T03:11:17.351Z,2.47
2019-05-12T03:13:44.984Z,2.70
2019-05-12T03:16:15.046Z,2.50
2019-05-12T03:18:39.760Z,2.63
2019-05-12T03:21:07.240Z,2.77
2019-05-12T03:23:35.354Z,2.47
2019-05-12T03:26:05.254Z,2.63
2019-05-12T03:28:29.833Z,2.70
2019-05-12T03:30:58.516Z,2.50
2019-05-12T03:33:33.576Z,2.87
2019-05-12T03:35:59.743Z,2.13
2019-05-12T03:38:20.397Z,2.57
2019-05-12T03:40:47.869Z,2.20
2019-05-12T03:43:15.336Z,2.47
2019-05-12T03:45:45.293Z,2.60
2019-05-12T03:48:10.268Z,2.90
2019-05-12T03:50:37.725Z,2.42
2019-05-12T03:53:10.011Z,2.50
2019-05-12T03:55:38.062Z,2.57
2019-05-12T03:58:00.122Z,2.67
2019-05-12T04:00:27.591Z,2.50
2019-05-12T04:02:55.701Z,2.72
2019-05-12T04:05:24.360Z,2.47
2019-05-12T04:07:54.475Z,3.10
2019-05-12T04:10:18.532Z,2.90
2019-05-12T04:12:46.000Z,2.60
2019-05-12T04:15:15.221Z,3.00
2019-05-12T04:17:40.949Z,2.73
2019-05-12T04:20:08.420Z,2.65
2019-05-12T04:22:35.871Z,2.83
2019-05-12T04:25:06.229Z,2.60
2019-05-12T04:27:30.888Z,2.70
2019-05-12T04:29:58.349Z,3.00
2019-05-12T04:32:25.794Z,2.50
2019-05-12T04:34:55.064Z,2.80
2019-05-12T04:37:22.214Z,2.97
2019-05-12T04:39:48.949Z,3.20
2019-05-12T04:42:16.403Z,3.13
2019-05-12T04:44:44.811Z,3.33
2019-05-12T04:47:14.356Z,2.80
2019-05-12T04:49:38.851Z,3.00
2019-05-12T04:52:06.305Z,2.92
2019-05-12T04:54:35.587Z,2.77
2019-05-12T04:57:03.989Z,3.13
2019-05-12T04:59:28.710Z,2.93
2019-05-12T05:01:56.139Z,2.93
2019-05-12T05:04:24.434Z,3.13
2019-05-12T05:06:54.938Z,2.95
2019-05-12T05:09:19.570Z,3.50
2019-05-12T05:11:47.042Z,3.42
2019-05-12T05:14:14.599Z,3.57
2019-05-12T05:16:44.902Z,2.93
2019-05-12T05:19:09.435Z,2.72
2019-05-12T05:21:36.905Z,3.10
2019-05-12T05:24:04.388Z,2.83
2019-05-12T05:26:34.914Z,3.10
2019-05-12T05:28:59.332Z,2.95
2019-05-12T05:31:26.798Z,3.40
2019-05-12T05:33:54.348Z,2.80
2019-05-12T05:36:24.805Z,2.80
2019-05-12T05:38:50.922Z,3.47
2019-05-12T05:43:58.517Z,3.20
2019-05-12T05:46:24.290Z,3.10
2019-05-12T05:48:54.125Z,2.90
2019-05-12T05:51:19.248Z,2.87
2019-05-12T05:53:49.896Z,2.80
2019-05-12T05:56:15.415Z,3.30
2019-05-12T05:58:46.986Z,3.60
2019-05-12T06:01:09.157Z,3.30
2019-05-12T06:03:36.606Z,3.43
2019-05-12T06:06:10.847Z,3.03
2019-05-12T06:08:33.745Z,3.40
2019-05-12T06:10:59.091Z,3.20
2019-05-12T06:13:31.684Z,3.30
2019-05-12T06:15:54.102Z,3.10
2019-05-12T06:18:23.813Z,3.43
2019-05-12T06:20:49.019Z,2.70
2019-05-12T06:23:16.505Z,2.72
2019-05-12T06:25:47.353Z,3.03
2019-05-12T06:28:11.447Z,3.10
2019-05-12T06:30:44.488Z,3.33
2019-05-12T06:33:06.624Z,2.60
2019-05-12T06:35:37.447Z,2.47
2019-05-12T06:38:02.548Z,2.67
2019-05-12T06:40:30.932Z,2.50
2019-05-12T06:42:57.212Z,2.57
2019-05-12T06:45:28.409Z,2.97
2019-05-12T06:47:54.070Z,3.13
2019-05-12T06:50:19.069Z,3.10
2019-05-12T06:52:48.999Z,3.23
2019-05-12T06:55:14.702Z,2.90
2019-05-12T06:57:45.870Z,3.30
2019-05-12T07:00:09.004Z,2.70
2019-05-12T07:02:48.364Z,2.87
2019-05-12T07:05:04.424Z,2.50
2019-05-12T07:07:34.653Z,2.63
2019-05-12T07:10:08.045Z,2.23
2019-05-12T07:12:32.770Z,2.00
2019-05-12T07:14:57.080Z,2.15
2019-05-12T07:17:26.810Z,2.20
2019-05-12T07:19:58.221Z,2.17
2019-05-12T07:22:25.647Z,2.60
2019-05-12T07:24:51.853Z,2.30
2019-05-12T07:27:17.372Z,2.23
2019-05-12T07:29:44.846Z,1.70
2019-05-12T07:32:16.262Z,1.80
2019-05-12T07:34:39.775Z,2.03
2019-05-12T07:37:07.234Z,2.50
2019-05-12T07:39:36.961Z,2.00
2019-05-12T07:42:03.603Z,2.10
2019-05-12T07:44:32.103Z,1.57
2019-05-12T07:46:57.357Z,1.40
2019-05-12T07:49:34.381Z,1.23
2019-05-12T07:51:54.242Z,1.43
2019-05-12T07:54:20.573Z,1.62
2019-05-12T07:56:48.039Z,1.33
2019-05-12T07:59:15.498Z,1.40
2019-05-12T08:01:50.175Z,1.30
2019-05-12T08:04:10.418Z,1.67
2019-05-12T08:06:41.565Z,1.60
2019-05-12T08:09:05.334Z,1.50
2019-05-12T08:11:34.665Z,1.77
2019-05-12T08:14:00.245Z,1.60
2019-05-12T08:16:29.655Z,1.67
2019-05-12T08:18:56.150Z,1.60
2019-05-12T08:21:24.263Z,1.47
2019-05-12T08:23:53.298Z,1.70
2019-05-12T08:26:18.918Z,1.30
2019-05-12T08:28:46.376Z,1.37
2019-05-12T08:31:14.212Z,1.53
2019-05-12T08:33:43.502Z,1.50
2019-05-12T08:36:16.046Z,1.23
2019-05-12T08:38:36.248Z,1.50
2019-05-12T08:41:04.262Z,1.37
2019-05-12T08:43:31.195Z,1.30
2019-05-12T08:46:00.182Z,1.40
2019-05-12T08:48:26.152Z,1.60
2019-05-12T08:50:54.642Z,1.67
2019-05-12T08:53:23.048Z,1.55
2019-05-12T08:55:48.845Z,1.20
2019-05-12T08:58:30.304Z,1.50
2019-05-12T09:00:48.773Z,1.33
2019-05-12T09:03:11.214Z,1.10
2019-05-12T09:05:38.904Z,1.40
2019-05-12T09:08:06.117Z,1.10
2019-05-12T09:10:34.291Z,1.33
2019-05-12T09:13:03.691Z,0.80
2019-05-12T09:15:29.081Z,1.30
2019-05-12T09:17:57.055Z,1.07
2019-05-12T09:20:24.309Z,1.23
2019-05-12T09:22:52.810Z,1.50
2019-05-12T09:25:19.016Z,1.47
2019-05-12T09:27:49.477Z,1.37
2019-05-12T09:30:14.257Z,1.52
2019-05-12T09:32:48.653Z,1.50
2019-05-12T09:35:08.869Z,1.70
2019-05-12T09:37:40.207Z,1.43
2019-05-12T09:40:04.676Z,1.23
2019-05-12T09:42:33.407Z,1.50
2019-05-12T09:44:59.966Z,1.30
2019-05-12T09:47:27.711Z,1.33
2019-05-12T09:49:54.318Z,1.10
2019-05-12T09:52:23.233Z,1.40
2019-05-12T09:54:49.223Z,1.20
2019-05-12T09:57:16.658Z,1.20
2019-05-12T09:59:45.913Z,1.40
2019-05-12T10:02:18.632Z,1.30
2019-05-12T10:04:39.043Z,1.40
2019-05-12T10:07:06.458Z,1.33
2019-05-12T10:09:34.892Z,1.30
2019-05-12T10:12:03.242Z,1.40
2019-05-12T10:14:29.893Z,1.20
2019-05-12T10:16:57.381Z,1.40
2019-05-12T10:19:24.850Z,1.43
2019-05-12T10:21:55.152Z,1.57
2019-05-12T10:24:19.772Z,1.20
2019-05-12T10:26:49.588Z,1.43
2019-05-12T10:29:20.399Z,1.35
2019-05-12T10:31:44.376Z,1.52
2019-05-12T10:34:15.198Z,1.33
2019-05-12T10:36:44.868Z,1.30
2019-05-12T10:39:10.096Z,1.70
2019-05-12T10:41:37.542Z,1.87
2019-05-12T10:44:05.553Z,1.73
2019-05-12T10:46:32.987Z,1.40
2019-05-12T10:49:00.431Z,1.47
2019-05-12T10:51:27.879Z,1.50
2019-05-12T10:54:01.841Z,1.90
2019-05-12T10:56:24.028Z,1.58
2019-05-12T10:58:50.352Z,2.07
2019-05-12T11:01:17.805Z,1.70
2019-05-12T11:06:39.727Z,1.67
2019-05-12T11:09:03.815Z,1.13
2019-05-12T11:11:33.009Z,1.00
2019-05-12T11:13:58.385Z,1.50
2019-05-12T11:16:30.742Z,1.33
2019-05-12T11:18:54.222Z,1.70
2019-05-12T11:21:20.810Z,1.48
2019-05-12T11:23:48.269Z,1.53
2019-05-12T11:26:15.733Z,1.60
2019-05-12T11:28:43.193Z,1.63
2019-05-12T11:31:10.653Z,1.17
2019-05-12T11:33:38.088Z,1.30
2019-05-12T11:36:06.489Z,1.20
2019-05-12T11:38:33.948Z,1.30
2019-05-12T11:41:01.372Z,1.20
2019-05-12T11:43:29.857Z,1.37
2019-05-12T11:45:56.274Z,1.50
2019-05-12T11:48:23.872Z,1.17
2019-05-12T11:50:51.463Z,1.58
2019-05-12T11:53:21.841Z,1.30
2019-05-12T11:55:46.151Z,1.48
2019-05-12T11:58:13.610Z,1.58
2019-05-12T12:00:44.235Z,1.40
2019-05-12T12:03:15.461Z,1.33
2019-05-12T12:05:39.007Z,1.20
2019-05-12T12:08:07.147Z,1.17
2019-05-12T12:10:38.348Z,1.17
2019-05-12T12:13:03.726Z,1.12
2019-05-12T12:15:30.410Z,1.30
2019-05-12T12:17:57.064Z,1.20
2019-05-12T12:20:24.513Z,1.23
2019-05-12T12:22:54.117Z,1.50
2019-05-12T12:25:25.070Z,1.55
2019-05-12T12:27:53.710Z,1.40
2019-05-12T12:30:20.227Z,1.48
2019-05-12T12:32:50.295Z,1.52
2019-05-12T12:35:15.147Z,1.70
2019-05-12T12:37:44.840Z,1.40
2019-05-12T12:40:09.887Z,1.00
2019-05-12T12:42:44.121Z,1.20
2019-05-12T12:45:11.062Z,1.27
2019-05-12T12:47:46.842Z,1.43
2019-05-12T12:50:06.111Z,1.20
2019-05-12T12:52:33.649Z,1.00
2019-05-12T12:55:05.315Z,1.08
2019-05-12T12:57:28.535Z,1.20
2019-05-12T12:59:55.991Z,1.08
2019-05-12T13:02:24.743Z,1.20
2019-05-12T13:04:50.879Z,1.33
2019-05-12T13:07:18.318Z,1.10
2019-05-12T13:09:45.790Z,1.20
2019-05-12T13:12:17.647Z,1.25
2019-05-12T13:14:40.667Z,1.10
2019-05-12T13:17:08.591Z,1.10
2019-05-12T13:19:36.036Z,1.20
2019-05-12T13:22:03.796Z,0.83
2019-05-12T13:24:31.001Z,0.93
2019-05-12T13:26:58.451Z,0.73
2019-05-12T13:29:34.542Z,0.90
2019-05-12T13:31:53.847Z,0.90
2019-05-12T13:34:20.868Z,1.07
2019-05-12T13:36:48.310Z,0.80
2019-05-12T13:39:16.527Z,1.43
2019-05-12T13:41:43.723Z,0.90
2019-05-12T13:44:10.742Z,1.00
2019-05-12T13:46:39.219Z,0.90
2019-05-12T13:49:06.658Z,0.90
2019-05-12T13:51:34.130Z,1.03
2019-05-12T13:54:03.719Z,0.90
2019-05-12T13:56:32.981Z,1.33
2019-05-12T13:58:56.569Z,1.20
2019-05-12T14:01:24.869Z,1.10
2019-05-12T14:03:53.591Z,1.30
2019-05-12T14:06:23.004Z,1.10
2019-05-12T14:08:46.462Z,1.12
2019-05-12T14:11:13.880Z,1.10
2019-05-12T14:13:41.329Z,1.00
2019-05-12T14:16:09.744Z,1.03
2019-05-12T14:18:37.211Z,1.10
2019-05-12T14:21:04.651Z,1.00
2019-05-12T14:23:34.159Z,1.27
2019-05-12T14:26:02.253Z,1.20
2019-05-12T14:28:27.041Z,0.93
2019-05-12T14:30:54.685Z,0.90
2019-05-12T14:33:24.352Z,1.10
2019-05-12T14:35:49.419Z,0.83
2019-05-12T14:38:19.450Z,0.70
2019-05-12T14:40:44.327Z,0.90
2019-05-12T14:43:17.037Z,0.90
2019-05-12T14:45:40.309Z,0.90
2019-05-12T14:48:09.413Z,0.93
2019-05-12T14:50:35.203Z,1.07
2019-05-12T14:53:03.533Z,0.73
2019-05-12T14:55:30.103Z,0.90
2019-05-12T14:57:57.562Z,0.90
2019-05-12T15:00:25.000Z,0.77
2019-05-12T15:02:53.963Z,0.90
2019-05-12T15:05:19.945Z,0.90
2019-05-12T15:07:53.485Z,0.93
2019-05-12T15:10:14.894Z,0.70
2019-05-12T15:12:44.063Z,1.00
2019-05-12T15:15:18.381Z,1.10
2019-05-12T15:17:37.314Z,0.87
2019-05-12T15:20:09.137Z,1.00
2019-05-12T15:22:33.153Z,1.30
2019-05-12T15:25:02.854Z,1.10
2019-05-12T15:27:41.314Z,0.90
2019-05-12T15:29:59.435Z,1.03
2019-05-12T15:32:23.658Z,1.10
2019-05-12T15:34:50.306Z,1.30
2019-05-12T15:37:17.773Z,1.10
2019-05-12T15:39:45.242Z,1.47
2019-05-12T15:42:14.229Z,1.00
2019-05-12T15:44:40.161Z,1.30
2019-05-12T15:47:07.660Z,1.25
2019-05-12T15:49:35.104Z,1.00
2019-05-12T15:52:03.531Z,0.90
2019-05-12T15:54:31.056Z,1.35
2019-05-12T15:56:58.154Z,1.20
2019-05-12T15:59:25.630Z,0.90
2019-05-12T16:01:57.385Z,1.00
2019-05-12T16:04:20.511Z,1.00
2019-05-12T16:06:53.493Z,1.30
2019-05-12T16:09:15.405Z,1.00
2019-05-12T16:11:42.912Z,1.00
2019-05-12T16:14:10.396Z,1.20
2019-05-12T16:16:42.653Z,1.10
2019-05-12T16:19:05.370Z,1.43
2019-05-12T16:21:32.819Z,1.30
2019-05-12T16:24:02.976Z,1.37
2019-05-12T16:26:28.165Z,1.00
2019-05-12T16:29:02.400Z,1.23
2019-05-12T16:31:23.685Z,1.00
2019-05-12T16:33:52.830Z,1.23
2019-05-12T16:36:18.040Z,1.20
2019-05-12T16:38:50.096Z,1.10
2019-05-12T16:41:14.276Z,1.10
2019-05-12T16:43:40.409Z,0.90
2019-05-12T16:46:07.841Z,1.13
2019-05-12T16:48:36.306Z,1.20
2019-05-12T16:51:03.341Z,1.30
2019-05-12T16:53:30.293Z,1.40
2019-05-12T16:55:58.237Z,1.20
2019-05-12T16:58:33.078Z,1.20
2019-05-12T17:00:53.569Z,1.33
2019-05-12T17:03:20.632Z,1.37
2019-05-12T17:05:50.094Z,1.40
2019-05-12T17:08:15.515Z,1.20
2019-05-12T17:10:49.716Z,1.60
2019-05-12T17:13:13.458Z,1.00
2019-05-12T17:15:40.157Z,1.20
2019-05-12T17:18:07.597Z,1.13
2019-05-12T17:20:35.074Z,1.13
2019-05-12T17:23:03.417Z,1.20
2019-05-12T17:25:30.044Z,1.30
2019-05-12T17:28:03.499Z,1.15
2019-05-12T17:30:25.815Z,1.13
2019-05-12T17:33:00.565Z,1.20
2019-05-12T17:35:26.915Z,1.00
2019-05-12T17:37:48.271Z,1.00
2019-05-12T17:40:20.136Z,1.40
2019-05-12T17:42:44.271Z,1.80
2019-05-12T17:45:15.860Z,1.20
2019-05-12T17:47:38.237Z,1.20
2019-05-12T17:50:09.135Z,1.27
2019-05-12T17:52:33.683Z,1.20
2019-05-12T17:55:05.853Z,1.30
2019-05-12T17:57:28.373Z,1.10
2019-05-12T18:00:03.430Z,1.90
2019-05-12T18:02:23.724Z,1.00
2019-05-12T18:04:50.776Z,1.50
2019-05-12T18:07:19.320Z,1.10
2019-05-12T18:09:50.496Z,1.37
2019-05-12T18:12:13.874Z,1.13
2019-05-12T18:14:46.754Z,1.70
2019-05-12T18:17:08.832Z,2.33
2019-05-12T18:19:35.776Z,1.42
2019-05-12T18:22:09.033Z,1.37
2019-05-12T18:24:30.767Z,1.77
2019-05-12T18:27:04.207Z,1.48
2019-05-12T18:29:25.963Z,1.30
2019-05-12T18:31:55.542Z,1.20
2019-05-12T18:34:20.884Z,1.03
2019-05-12T18:36:49.014Z,1.20
2019-05-12T18:39:15.848Z,1.40
2019-05-12T18:41:43.872Z,1.10
2019-05-12T18:44:18.106Z,1.48
2019-05-12T18:46:44.920Z,3.17
2019-05-12T18:49:12.311Z,1.48
2019-05-12T18:51:34.300Z,1.23
2019-05-12T18:54:03.600Z,1.00
2019-05-12T18:56:28.562Z,1.10
2019-05-12T18:58:56.023Z,1.50
2019-05-12T19:01:24.460Z,1.40
2019-05-12T19:03:51.310Z,1.30
2019-05-12T19:06:18.427Z,1.33
2019-05-12T19:08:45.886Z,1.37
2019-05-12T19:11:20.022Z,1.90
2019-05-12T19:13:45.279Z,1.20
2019-05-12T19:16:11.282Z,1.40
2019-05-12T19:18:37.295Z,1.70
2019-05-12T19:21:04.603Z,1.43
2019-05-12T19:23:34.999Z,1.23
2019-05-12T19:25:58.703Z,1.10
2019-05-12T19:28:26.135Z,1.10
2019-05-12T19:30:54.619Z,1.70
2019-05-12T19:33:21.143Z,1.33
2019-05-12T19:35:50.445Z,1.07
2019-05-12T19:38:16.086Z,1.30
2019-05-12T19:40:47.201Z,1.43
2019-05-12T19:43:11.056Z,1.30
2019-05-12T19:45:38.553Z,1.10
2019-05-12T19:48:05.995Z,1.42
2019-05-12T19:50:33.462Z,1.83
2019-05-12T19:53:00.987Z,1.20
2019-05-12T19:55:28.774Z,1.20
2019-05-12T19:57:56.255Z,1.13
2019-05-12T20:00:23.707Z,0.90
2019-05-12T20:02:51.176Z,1.20
2019-05-12T20:05:18.652Z,1.37
2019-05-12T20:07:46.103Z,1.07
2019-05-12T20:10:16.326Z,1.20
2019-05-12T20:12:43.433Z,1.37
2019-05-12T20:15:08.508Z,1.60
2019-05-12T20:17:35.949Z,1.07
2019-05-12T20:20:04.726Z,2.13
2019-05-12T20:22:33.274Z,1.33
2019-05-12T20:24:58.735Z,1.20
2019-05-12T20:27:26.199Z,1.30
2019-05-12T20:29:54.064Z,1.17
2019-05-12T20:32:21.115Z,1.20
2019-05-12T20:34:51.969Z,1.13
2019-05-12T20:37:16.798Z,1.47
2019-05-12T20:39:44.569Z,1.27
2019-05-12T20:42:10.984Z,1.30
2019-05-12T20:44:38.518Z,1.10
2019-05-12T20:47:06.517Z,1.10
2019-05-12T20:49:33.737Z,1.20
2019-05-12T20:52:09.328Z,1.10
2019-05-12T20:54:28.782Z,0.98
2019-05-12T20:57:02.399Z,1.10
2019-05-12T20:59:28.055Z,1.13
2019-05-12T21:01:51.188Z,1.40
2019-05-12T21:04:22.072Z,1.80
2019-05-12T21:06:48.474Z,1.43
2019-05-12T21:09:14.346Z,1.50
2019-05-12T21:11:41.150Z,1.43
2019-05-12T21:14:10.415Z,1.87
2019-05-12T21:16:38.756Z,1.47
2019-05-12T21:19:10.620Z,1.57
2019-05-12T21:21:34.241Z,1.30
2019-05-12T21:23:59.390Z,1.37
2019-05-12T21:26:28.565Z,1.27
2019-05-12T21:28:54.008Z,1.30
2019-05-12T21:31:29.037Z,1.50
2019-05-12T21:33:48.773Z,1.23
2019-05-12T21:36:24.159Z,1.50
2019-05-12T21:38:43.705Z,1.40
2019-05-12T21:41:13.375Z,1.20
2019-05-12T21:43:38.603Z,1.30
2019-05-12T21:46:12.261Z,1.37
2019-05-12T21:48:34.037Z,1.70
2019-05-12T21:51:03.950Z,1.30
2019-05-12T21:53:28.933Z,1.25
2019-05-12T21:56:04.116Z,1.13
2019-05-12T21:58:23.861Z,1.20
2019-05-12T22:00:59.607Z,1.13
2019-05-12T22:03:20.601Z,1.60
2019-05-12T22:05:54.632Z,1.13
2019-05-12T22:08:20.693Z,1.20
2019-05-12T22:10:43.776Z,1.30
2019-05-12T22:13:16.956Z,1.58
2019-05-12T22:15:38.317Z,1.40
2019-05-12T22:18:05.796Z,1.20
2019-05-12T22:20:33.245Z,1.37
2019-05-12T22:23:06.197Z,1.60
2019-05-12T22:25:28.995Z,1.47
2019-05-12T22:27:59.358Z,1.60
2019-05-12T22:30:24.229Z,1.30
2019-05-12T22:32:51.474Z,1.30
2019-05-12T22:35:21.921Z,1.40
2019-05-12T22:37:46.425Z,1.25
2019-05-12T22:40:17.556Z,1.92
2019-05-12T22:42:41.393Z,1.67
2019-05-12T22:45:08.831Z,1.67
2019-05-12T22:47:36.283Z,1.33
2019-05-12T22:50:04.153Z,1.50
2019-05-12T22:52:33.360Z,1.10
2019-05-12T22:54:59.194Z,1.90
2019-05-12T22:57:29.160Z,1.40
2019-05-12T22:59:54.119Z,1.60
2019-05-12T23:02:27.894Z,1.57
2019-05-12T23:04:49.056Z,1.60
2019-05-12T23:07:19.086Z,1.50
2019-05-12T23:09:44.014Z,1.67
2019-05-12T23:12:18.101Z,1.20
2019-05-12T23:14:38.946Z,1.60
2019-05-12T23:17:07.551Z,1.50
2019-05-12T23:19:34.110Z,1.70
2019-05-12T23:22:03.370Z,1.50
2019-05-12T23:24:30.427Z,1.80
2019-05-12T23:26:56.663Z,1.67
2019-05-12T23:29:26.824Z,1.90
2019-05-12T23:31:53.584Z,1.53
2019-05-12T23:34:19.067Z,1.20
2019-05-12T23:36:50.591Z,1.73
2019-05-12T23:39:14.440Z,1.77
2019-05-12T23:41:43.623Z,1.60
2019-05-12T23:44:09.054Z,1.40
2019-05-12T23:46:36.514Z,2.10
2019-05-12T23:49:04.000Z,1.80
